Time;durP1;ratioP1;P1;durP2;ratioP2;P2;SDS_P1;SDS_P2;PMS_P1;PMS_P2;Temp;Humidity;BMP_temperature;BMP_pressure;BME280_temperature;BME280_humidity;BME280_pressure;Samples;Min_cycle;Max_cycle;Signal;HPM_P1;HPM_P2
2022/07/30 00:01:55;;;;;;;13.45;8.27;;;;;;;17.36;79.50;101728.94;5017963;28;20034;-77
2022/07/30 00:04:20;;;;;;;12.55;8.40;;;;;;;17.34;79.55;101731.72;5021848;28;20028;-78
2022/07/30 00:06:46;;;;;;;13.82;8.60;;;;;;;17.35;79.66;101724.69;5017390;28;20382;-77
2022/07/30 00:09:11;;;;;;;12.57;8.38;;;;;;;17.26;79.70;101731.59;5015881;28;20025;-77
2022/07/30 00:11:37;;;;;;;10.50;8.48;;;;;;;17.11;80.29;101722.59;5022378;28;20481;-77
2022/07/30 00:14:02;;;;;;;12.25;8.35;;;;;;;17.17;80.56;101722.03;5026222;28;20032;-75
2022/07/30 00:16:27;;;;;;;13.40;8.15;;;;;;;17.10;80.28;101715.72;5023634;28;20067;-77
2022/07/30 00:18:53;;;;;;;11.80;8.20;;;;;;;17.13;79.90;101710.16;5017729;28;20484;-77
2022/07/30 00:21:18;;;;;;;14.35;8.68;;;;;;;17.16;79.84;101710.72;5022321;28;20068;-76
2022/07/30 00:23:44;;;;;;;12.65;8.13;;;;;;;17.16;80.35;101720.38;5023883;28;20104;-77
2022/07/30 00:26:09;;;;;;;11.57;7.82;;;;;;;17.14;79.94;101712.63;5020400;28;20061;-78
2022/07/30 00:28:34;;;;;;;11.80;8.38;;;;;;;17.13;79.89;101715.41;5028128;28;20041;-77
2022/07/30 00:31:01;;;;;;;12.57;8.18;;;;;;;16.97;81.13;101706.41;5023647;28;20108;-78
2022/07/30 00:33:26;;;;;;;14.05;8.27;;;;;;;17.15;79.36;101716.94;5025408;28;20037;-78
2022/07/30 00:35:51;;;;;;;13.50;8.32;;;;;;;17.14;80.10;101715.25;5022577;28;20373;-78
2022/07/30 00:38:17;;;;;;;12.82;8.32;;;;;;;17.07;80.27;101716.00;5022682;28;20025;-78
2022/07/30 00:40:42;;;;;;;12.60;8.52;;;;;;;16.84;81.47;101724.22;5019712;28;20044;-76
2022/07/30 00:43:14;;;;;;;13.75;8.50;;;;;;;16.94;81.42;101722.41;5022469;28;20041;-78
2022/07/30 00:45:39;;;;;;;12.65;8.25;;;;;;;16.94;81.09;101706.69;5010291;28;20025;-78
2022/07/30 00:48:04;;;;;;;12.05;8.45;;;;;;;16.83;81.66;101712.09;5010901;28;20614;-75
2022/07/30 00:50:30;;;;;;;11.98;8.48;;;;;;;16.80;82.05;101709.75;5026661;28;20033;-77
2022/07/30 00:52:56;;;;;;;12.18;7.85;;;;;;;16.91;81.46;101712.19;5027686;28;20025;-78
2022/07/30 00:55:21;;;;;;;12.45;8.75;;;;;;;16.64;82.54;101710.38;5015543;28;20025;-78
2022/07/30 00:57:46;;;;;;;12.82;8.50;;;;;;;16.70;83.00;101709.81;5023938;28;20512;-77
2022/07/30 01:00:14;;;;;;;12.00;8.52;;;;;;;16.75;82.62;101701.53;5026135;28;20037;-78
2022/07/30 01:02:39;;;;;;;13.25;9.07;;;;;;;16.60;83.69;101702.94;5022407;28;20029;-78
2022/07/30 01:05:06;;;;;;;12.13;8.65;;;;;;;16.68;83.19;101705.63;5009383;28;20116;-78
2022/07/30 01:07:31;;;;;;;11.90;8.55;;;;;;;16.62;83.54;101704.41;5018693;28;20461;-78
2022/07/30 01:09:57;;;;;;;13.38;9.05;;;;;;;16.63;83.11;101706.09;5025910;28;20056;-78
2022/07/30 01:12:24;;;;;;;15.60;8.88;;;;;;;16.59;83.97;101711.75;5022640;28;20021;-78
2022/07/30 01:14:51;;;;;;;14.02;9.38;;;;;;;16.64;82.95;101720.00;5019689;28;20029;-77
2022/07/30 01:17:17;;;;;;;13.23;9.48;;;;;;;16.57;83.67;101718.91;5025243;28;20021;-77
2022/07/30 01:19:47;;;;;;;12.48;9.07;;;;;;;16.55;83.38;101710.38;5025455;28;20045;-78
2022/07/30 01:22:27;;;;;;;14.80;9.07;;;;;;;16.67;83.45;101710.06;5023700;28;20042;-78
2022/07/30 01:24:57;;;;;;;12.80;9.30;;;;;;;16.68;82.88;101713.50;5025813;28;20083;-78
2022/07/30 01:27:25;;;;;;;12.15;9.52;;;;;;;16.51;83.41;101711.63;5040173;28;20432;-78
2022/07/30 01:29:53;;;;;;;16.20;9.10;;;;;;;16.49;83.29;101705.72;5021223;28;20132;-76
2022/07/30 01:32:22;;;;;;;13.00;9.25;;;;;;;16.46;83.13;101699.81;5011140;28;20125;-78
2022/07/30 01:34:49;;;;;;;12.50;9.43;;;;;;;16.42;83.57;101685.34;5012744;28;20115;-79
2022/07/30 01:37:16;;;;;;;14.82;9.45;;;;;;;16.32;83.71;101689.75;5019847;28;20029;-78
2022/07/30 01:39:42;;;;;;;14.80;9.02;;;;;;;16.33;84.41;101701.88;5025822;28;20421;-78
2022/07/30 01:42:10;;;;;;;13.10;9.00;;;;;;;16.32;84.09;101699.41;5020903;28;20458;-77
2022/07/30 01:44:38;;;;;;;14.68;9.98;;;;;;;16.34;84.30;101700.91;5016894;28;20034;-78
2022/07/30 01:47:07;;;;;;;12.45;9.07;;;;;;;16.38;84.40;101704.09;5022280;28;20057;-78
2022/07/30 01:49:35;;;;;;;11.20;8.70;;;;;;;16.28;84.69;101705.88;5015201;28;20057;-78
2022/07/30 01:52:02;;;;;;;16.08;9.40;;;;;;;16.22;84.62;101696.81;5017776;28;20041;-78
2022/07/30 01:54:30;;;;;;;16.25;9.52;;;;;;;16.17;85.54;101706.88;5024984;28;20026;-78
2022/07/30 01:56:58;;;;;;;12.67;9.00;;;;;;;16.19;84.83;101710.19;5018857;28;20044;-78
2022/07/30 01:59:25;;;;;;;12.83;8.80;;;;;;;16.31;84.74;101709.06;5015466;28;20672;-78
2022/07/30 02:01:51;;;;;;;13.07;8.93;;;;;;;16.34;84.41;101708.75;5021499;28;20300;-77
2022/07/30 02:04:16;;;;;;;14.35;8.65;;;;;;;16.18;84.53;101693.66;5026233;28;20461;-78
2022/07/30 02:06:59;;;;;;;10.55;8.27;;;;;;;16.27;84.89;101707.69;5026053;28;20037;-76
2022/07/30 02:09:32;;;;;;;12.80;8.73;;;;;;;16.25;84.67;101704.38;5024415;28;20029;-78
2022/07/30 02:14:48;;;;;;;12.48;8.82;;;;;;;16.15;84.86;101716.66;5013887;28;20032;-79
2022/07/30 02:17:20;;;;;;;16.48;9.30;;;;;;;16.09;85.58;101714.59;5020272;28;20041;-78
2022/07/30 02:19:50;;;;;;;11.85;8.70;;;;;;;16.13;84.94;101715.97;5024522;28;20272;-77
2022/07/30 02:22:17;;;;;;;12.82;8.63;;;;;;;16.08;85.21;101713.78;5021231;28;20168;-77
2022/07/30 02:24:43;;;;;;;13.45;9.23;;;;;;;16.10;84.82;101711.00;5026960;28;20507;-78
2022/07/30 02:27:20;;;;;;;14.43;8.68;;;;;;;16.09;85.23;101719.84;5012060;28;20025;-77
2022/07/30 02:29:48;;;;;;;14.20;8.88;;;;;;;16.01;85.50;101711.88;5017668;28;20117;-77
2022/07/30 02:32:19;;;;;;;15.43;9.18;;;;;;;15.98;85.11;101717.38;5024103;28;20029;-78
2022/07/30 02:34:48;;;;;;;12.18;9.32;;;;;;;16.06;85.19;101720.97;5026340;28;20133;-78
2022/07/30 02:37:15;;;;;;;12.63;9.38;;;;;;;16.00;85.08;101715.44;5021674;28;20021;-78
2022/07/30 02:39:42;;;;;;;13.55;10.18;;;;;;;16.10;84.32;101716.25;5020124;28;20025;-78
2022/07/30 02:42:09;;;;;;;12.57;9.60;;;;;;;15.98;84.68;101712.13;5022211;28;20048;-78
2022/07/30 02:44:37;;;;;;;12.88;9.90;;;;;;;15.93;84.86;101705.50;5026186;28;20056;-77
2022/07/30 02:47:04;;;;;;;14.60;9.57;;;;;;;15.97;84.57;101711.31;5021456;28;20049;-77
2022/07/30 02:49:32;;;;;;;12.98;9.70;;;;;;;15.87;84.74;101715.72;5024233;28;20091;-78
2022/07/30 02:51:58;;;;;;;15.25;10.70;;;;;;;15.97;84.20;101710.47;5023373;28;20018;-78
2022/07/30 02:54:25;;;;;;;13.02;10.15;;;;;;;15.81;85.58;101711.84;5023788;28;20509;-78
2022/07/30 02:56:52;;;;;;;15.23;10.65;;;;;;;15.84;85.22;101711.59;5024042;28;20071;-78
2022/07/30 02:59:20;;;;;;;15.32;10.82;;;;;;;15.87;85.22;101711.31;5022651;28;20292;-78
2022/07/30 03:01:47;;;;;;;14.95;10.98;;;;;;;15.76;85.15;101702.75;5017886;28;20034;-78
2022/07/30 03:04:14;;;;;;;12.95;10.88;;;;;;;15.81;85.24;101711.84;5025498;28;20060;-78
2022/07/30 03:06:41;;;;;;;12.77;11.15;;;;;;;15.71;85.43;101703.16;5022489;28;20029;-78
2022/07/30 03:09:09;;;;;;;16.83;11.82;;;;;;;15.57;85.83;101714.00;5026141;28;20057;-78
2022/07/30 03:11:35;;;;;;;15.07;11.03;;;;;;;15.71;85.71;101711.00;5025549;28;20029;-76
2022/07/30 03:14:01;;;;;;;13.50;11.43;;;;;;;15.51;86.35;101714.56;5024627;28;20022;-78
2022/07/30 03:16:27;;;;;;;17.35;11.60;;;;;;;15.64;85.82;101720.38;5023016;28;20100;-78
2022/07/30 03:18:53;;;;;;;14.18;11.57;;;;;;;15.77;85.06;101720.97;5023939;28;20021;-77
2022/07/30 03:21:24;;;;;;;13.73;11.45;;;;;;;15.69;85.54;101712.94;5025775;28;20061;-78
2022/07/30 03:23:52;;;;;;;15.70;12.32;;;;;;;15.57;85.77;101714.00;5025028;28;20369;-78
2022/07/30 03:26:20;;;;;;;14.88;12.27;;;;;;;15.72;84.78;101717.09;5021310;28;20061;-77
2022/07/30 03:28:46;;;;;;;14.25;11.52;;;;;;;15.69;85.05;101723.41;5024643;28;20056;-75
2022/07/30 03:31:14;;;;;;;15.27;12.10;;;;;;;15.62;84.82;101717.91;5013488;28;20060;-79
2022/07/30 03:33:40;;;;;;;14.23;12.35;;;;;;;15.44;85.79;101723.91;5023946;28;20045;-78
2022/07/30 03:36:07;;;;;;;16.08;12.68;;;;;;;15.57;85.10;101716.63;5025094;28;20033;-77
2022/07/30 03:38:36;;;;;;;17.83;13.75;;;;;;;15.49;85.09;101721.72;5019474;28;20029;-78
2022/07/30 03:41:03;;;;;;;15.40;13.68;;;;;;;15.48;85.73;101715.63;5020118;28;20176;-78
2022/07/30 03:43:29;;;;;;;16.00;13.73;;;;;;;15.45;85.56;101717.72;5028647;28;20021;-78
2022/07/30 03:45:56;;;;;;;15.75;14.05;;;;;;;15.53;85.45;101717.84;5027306;28;20057;-78
2022/07/30 03:48:22;;;;;;;18.13;14.05;;;;;;;15.40;85.15;101718.94;5028828;28;20025;-77
2022/07/30 03:50:48;;;;;;;16.23;14.63;;;;;;;15.50;85.10;101715.53;5029031;28;20576;-77
2022/07/30 03:53:14;;;;;;;17.65;15.00;;;;;;;15.45;85.54;101728.19;5029585;28;20041;-78
2022/07/30 03:55:41;;;;;;;16.90;14.35;;;;;;;15.33;85.84;101725.66;5025709;28;20025;-79
2022/07/30 03:58:07;;;;;;;16.38;14.65;;;;;;;15.47;85.38;101723.63;5012305;28;20399;-78
2022/07/30 04:00:33;;;;;;;18.92;15.20;;;;;;;15.40;85.33;101720.72;5027430;28;20032;-77
2022/07/30 04:02:58;;;;;;;16.60;14.80;;;;;;;15.34;85.21;101724.72;5021804;28;20021;-78
2022/07/30 04:05:24;;;;;;;17.75;15.60;;;;;;;15.30;85.84;101728.53;5027200;28;20025;-78
2022/07/30 04:07:49;;;;;;;17.20;15.00;;;;;;;15.40;85.20;101724.16;5017039;28;20034;-78
2022/07/30 04:10:15;;;;;;;17.02;15.32;;;;;;;15.34;85.23;101735.16;5024525;28;20020;-77
2022/07/30 04:12:41;;;;;;;19.52;17.23;;;;;;;15.12;86.41;101727.53;5029836;28;20053;-78
2022/07/30 04:15:07;;;;;;;17.67;15.77;;;;;;;15.31;84.83;101734.59;5029320;28;20087;-78
2022/07/30 04:17:44;;;;;;;19.33;17.45;;;;;;;15.12;86.78;101732.75;5019787;28;20459;-78
2022/07/30 04:20:22;;;;;;;19.02;17.02;;;;;;;15.30;85.93;101739.00;5013047;28;20066;-76
2022/07/30 04:22:48;;;;;;;19.45;17.52;;;;;;;15.18;85.76;101740.06;5024222;28;20045;-78
2022/07/30 04:25:15;;;;;;;19.88;18.00;;;;;;;15.06;86.46;101746.34;5016845;28;20052;-78
2022/07/30 04:27:41;;;;;;;20.67;18.55;;;;;;;15.09;86.27;101751.31;5016309;28;20033;-77
2022/07/30 04:30:07;;;;;;;23.02;20.58;;;;;;;15.03;86.96;101751.84;5029306;28;20132;-77
2022/07/30 04:32:34;;;;;;;22.85;20.45;;;;;;;14.94;87.32;101750.00;5027244;28;20124;-77
2022/07/30 04:34:59;;;;;;;23.02;20.65;;;;;;;15.09;86.96;101751.31;5020413;28;20018;-77
2022/07/30 04:37:26;;;;;;;23.38;21.17;;;;;;;15.10;86.63;101750.38;5026151;28;20587;-78
2022/07/30 04:39:56;;;;;;;23.83;21.42;;;;;;;15.14;86.68;101749.16;5020413;28;20452;-77
2022/07/30 04:42:24;;;;;;;25.92;23.42;;;;;;;14.89;87.38;101753.00;5026881;28;20044;-77
2022/07/30 04:44:49;;;;;;;25.42;22.98;;;;;;;14.88;87.67;101754.81;5025683;28;20416;-77
2022/07/30 04:47:16;;;;;;;25.90;23.38;;;;;;;14.90;87.61;101759.88;5025980;28;20046;-78
2022/07/30 04:49:42;;;;;;;25.95;23.40;;;;;;;14.90;87.80;101761.69;5027943;28;20025;-78
2022/07/30 04:52:09;;;;;;;24.75;22.42;;;;;;;14.98;87.13;101754.84;5027384;28;20458;-77
2022/07/30 04:54:56;;;;;;;24.13;21.92;;;;;;;15.17;86.94;101753.28;5026158;28;20109;-77
2022/07/30 04:57:24;;;;;;;24.25;21.95;;;;;;;15.12;86.82;101761.50;5015560;28;20115;-77
2022/07/30 04:59:49;;;;;;;25.60;23.20;;;;;;;14.99;87.54;101751.28;5024756;28;20029;-77
2022/07/30 05:02:17;;;;;;;24.42;22.13;;;;;;;15.04;87.13;101761.34;5028144;28;20441;-79
2022/07/30 05:04:44;;;;;;;26.30;23.85;;;;;;;15.05;87.26;101770.84;5026882;28;20032;-78
2022/07/30 05:07:13;;;;;;;26.13;23.55;;;;;;;14.94;87.55;101773.53;5026690;28;20021;-78
2022/07/30 05:09:38;;;;;;;;;;;;;;;15.26;85.67;101769.00;5019065;28;20566;-78
2022/07/30 05:12:04;;;;;;;24.67;22.38;;;;;;;14.99;87.38;101776.56;5025272;28;19999;-78
2022/07/30 05:14:29;;;;;;;26.23;23.27;;;;;;;15.01;87.79;101774.66;5026219;28;20029;-78
2022/07/30 05:16:55;;;;;;;23.35;21.02;;;;;;;15.01;87.65;101785.09;5025087;28;20466;-78
2022/07/30 05:19:21;;;;;;;25.00;22.60;;;;;;;15.17;87.07;101780.22;5026600;28;20424;-78
2022/07/30 05:21:47;;;;;;;25.50;22.90;;;;;;;15.01;87.68;101785.09;5026325;28;20060;-78
2022/07/30 05:24:13;;;;;;;24.70;22.30;;;;;;;15.07;87.87;101781.97;5020783;28;20107;-77
2022/07/30 05:26:39;;;;;;;23.92;21.38;;;;;;;15.27;86.41;101780.28;5014067;28;20053;-78
2022/07/30 05:29:04;;;;;;;22.73;20.50;;;;;;;15.28;86.73;101785.34;5027081;28;20479;-77
2022/07/30 05:31:30;;;;;;;22.90;20.70;;;;;;;15.24;86.86;101781.34;5021855;28;20028;-77
2022/07/30 05:33:55;;;;;;;23.10;20.60;;;;;;;15.30;86.96;101786.03;5018410;28;20053;-78
2022/07/30 05:36:21;;;;;;;23.08;20.70;;;;;;;15.35;87.18;101786.47;5022173;28;20049;-78
2022/07/30 05:38:47;;;;;;;21.90;19.70;;;;;;;15.26;87.23;101789.06;5018460;28;20030;-78
2022/07/30 05:41:13;;;;;;;22.17;19.92;;;;;;;15.22;87.97;101783.28;5016384;28;20045;-78
2022/07/30 05:43:38;;;;;;;21.48;19.27;;;;;;;15.25;87.96;101785.59;5016252;28;20463;-78
2022/07/30 05:46:03;;;;;;;21.20;19.00;;;;;;;15.29;87.17;101789.63;5017837;28;20050;-77
2022/07/30 05:48:30;;;;;;;21.25;19.13;;;;;;;15.48;86.59;101798.47;5013722;28;20481;-78
2022/07/30 05:50:55;;;;;;;21.27;19.17;;;;;;;15.48;86.57;101793.25;5023688;28;20400;-78
2022/07/30 05:53:21;;;;;;;20.42;18.27;;;;;;;15.45;87.07;101798.75;5025134;28;20465;-77
2022/07/30 05:55:46;;;;;;;19.77;17.67;;;;;;;15.58;86.60;101794.13;5018559;28;20037;-78
2022/07/30 05:58:12;;;;;;;19.55;17.75;;;;;;;15.52;87.40;101795.47;5025580;28;20108;-74
2022/07/30 06:00:37;;;;;;;19.02;17.05;;;;;;;15.58;86.72;101796.72;5016128;28;20030;-79
2022/07/30 06:03:03;;;;;;;18.25;16.52;;;;;;;15.53;87.23;101794.50;5014556;28;20030;-79
2022/07/30 06:05:29;;;;;;;19.02;16.70;;;;;;;15.68;86.72;101802.03;5026085;28;20528;-76
2022/07/30 06:07:55;;;;;;;18.38;16.48;;;;;;;15.71;86.38;101799.13;5025350;28;20052;-78
2022/07/30 06:10:20;;;;;;;18.10;16.40;;;;;;;15.76;86.51;101810.00;5022357;28;20371;-77
2022/07/30 06:12:45;;;;;;;18.40;16.20;;;;;;;15.84;87.14;101810.19;5024283;28;20461;-78
2022/07/30 06:15:11;;;;;;;17.45;15.30;;;;;;;15.86;86.42;101819.53;5022748;28;20413;-78
2022/07/30 06:17:44;;;;;;;18.27;14.85;;;;;;;15.97;85.94;101809.91;5021131;28;20042;-76
2022/07/30 06:20:15;;;;;;;15.80;14.20;;;;;;;16.02;86.35;101819.00;5017980;28;20032;-78
2022/07/30 06:22:40;;;;;;;16.17;14.48;;;;;;;16.05;85.76;101817.91;5008940;28;20029;-79
2022/07/30 06:25:07;;;;;;;15.63;14.02;;;;;;;16.18;85.61;101818.47;5019553;28;20060;-78
2022/07/30 06:27:33;;;;;;;17.88;13.85;;;;;;;16.28;84.55;101814.03;5015638;28;20060;-77
2022/07/30 06:30:00;;;;;;;15.68;13.65;;;;;;;16.39;84.07;101832.22;5010984;28;20030;-78
2022/07/30 06:32:25;;;;;;;16.40;14.70;;;;;;;16.35;83.71;101836.13;5007374;28;20018;-78
2022/07/30 06:34:51;;;;;;;16.30;14.68;;;;;;;16.49;83.68;101832.22;5012257;28;20044;-78
2022/07/30 06:37:16;;;;;;;16.42;14.65;;;;;;;16.48;84.64;101824.53;5007269;28;20075;-78
2022/07/30 06:39:41;;;;;;;17.40;14.63;;;;;;;16.52;83.70;101839.81;5013378;28;20053;-78
2022/07/30 06:42:07;;;;;;;15.88;14.30;;;;;;;16.59;83.24;101832.22;5012413;28;20034;-79
2022/07/30 06:44:32;;;;;;;17.58;15.27;;;;;;;16.57;84.22;101834.16;5013562;28;20522;-79
2022/07/30 06:46:58;;;;;;;18.48;16.13;;;;;;;16.48;84.08;101835.00;5017738;28;20033;-79
2022/07/30 06:49:23;;;;;;;18.20;16.00;;;;;;;16.62;83.16;101843.25;5010222;28;20359;-78
2022/07/30 06:51:48;;;;;;;17.17;15.48;;;;;;;16.65;83.17;101842.16;5010868;28;20017;-81
2022/07/30 06:54:14;;;;;;;18.63;16.45;;;;;;;16.78;82.81;101840.09;5017199;28;20104;-78
2022/07/30 06:56:42;;;;;;;17.52;15.77;;;;;;;16.75;81.79;101843.00;5014487;28;20041;-79
2022/07/30 06:59:08;;;;;;;18.17;15.80;;;;;;;16.92;81.43;101831.78;5025304;28;20029;-78
2022/07/30 07:01:33;;;;;;;20.63;16.20;;;;;;;16.99;81.66;101829.44;5016123;28;20048;-79
2022/07/30 07:03:58;;;;;;;19.25;17.33;;;;;;;17.08;80.66;101828.56;5024887;28;20026;-79
2022/07/30 07:06:23;;;;;;;18.17;16.38;;;;;;;17.02;80.93;101834.38;5016460;28;20033;-78
2022/07/30 07:08:49;;;;;;;18.77;14.70;;;;;;;17.11;79.23;101830.06;5015792;28;20148;-77
2022/07/30 07:11:14;;;;;;;14.02;12.55;;;;;;;17.11;78.50;101827.47;5016457;28;20053;-79
2022/07/30 07:13:39;;;;;;;15.88;12.02;;;;;;;17.15;78.08;101828.84;5020127;28;20072;-78
2022/07/30 07:16:05;;;;;;;14.70;13.13;;;;;;;17.30;78.17;101835.25;5006004;28;20067;-77
2022/07/30 07:18:30;;;;;;;15.20;12.32;;;;;;;17.41;77.79;101829.81;5022823;28;20025;-79
2022/07/30 07:20:56;;;;;;;14.52;10.70;;;;;;;17.39;76.24;101837.00;5025293;28;20091;-78
2022/07/30 07:23:23;;;;;;;11.63;9.90;;;;;;;17.48;76.34;101836.13;5020831;28;20484;-78
2022/07/30 07:25:48;;;;;;;14.85;12.13;;;;;;;17.40;76.90;101828.16;5023280;28;20453;-78
2022/07/30 07:28:14;;;;;;;14.48;11.57;;;;;;;17.40;75.27;101838.66;5019163;28;20037;-77
2022/07/30 07:30:40;;;;;;;14.40;11.65;;;;;;;17.50;75.25;101843.88;5020618;28;20156;-77
2022/07/30 07:33:05;;;;;;;16.00;11.60;;;;;;;17.44;74.15;101840.03;5025217;28;20466;-78
2022/07/30 07:35:32;;;;;;;15.23;11.82;;;;;;;17.53;75.35;101844.38;5018327;28;20053;-78
2022/07/30 07:37:57;;;;;;;13.30;11.90;;;;;;;17.66;74.15;101837.97;5016519;28;20013;-78
2022/07/30 07:40:22;;;;;;;14.05;11.65;;;;;;;17.67;74.86;101852.75;5018280;28;20439;-77
2022/07/30 07:42:48;;;;;;;14.63;12.18;;;;;;;17.57;72.87;101844.09;5017550;28;20104;-79
2022/07/30 07:45:13;;;;;;;14.13;10.65;;;;;;;17.74;73.28;101845.97;5023940;28;20052;-77
2022/07/30 07:47:47;;;;;;;13.18;9.88;;;;;;;17.80;71.73;101845.38;5019495;28;20049;-78
2022/07/30 07:50:14;;;;;;;11.95;9.63;;;;;;;17.92;71.70;101849.44;5017576;28;20306;-78
2022/07/30 07:52:39;;;;;;;12.23;10.77;;;;;;;18.00;71.97;101852.13;5018973;28;20064;-77
2022/07/30 07:55:06;;;;;;;12.98;10.13;;;;;;;18.07;71.95;101857.66;5019705;28;20451;-78
2022/07/30 07:57:37;;;;;;;12.13;10.00;;;;;;;18.15;70.99;101849.00;5017718;28;20033;-78
2022/07/30 08:00:04;;;;;;;12.20;10.25;;;;;;;18.31;71.26;101849.16;5018130;28;20026;-78
2022/07/30 08:02:30;;;;;;;11.82;8.02;;;;;;;18.41;70.40;101839.41;5019014;28;20022;-79
2022/07/30 08:04:55;;;;;;;12.20;7.90;;;;;;;18.63;70.12;101842.50;5022343;28;20462;-78
2022/07/30 08:07:20;;;;;;;11.52;7.50;;;;;;;18.60;69.04;101845.47;5023207;28;20037;-78
2022/07/30 08:09:46;;;;;;;10.25;7.00;;;;;;;18.50;68.83;101835.84;5024337;28;20032;-79
2022/07/30 08:12:12;;;;;;;9.18;6.30;;;;;;;18.76;68.65;101843.00;5020299;28;20455;-78
2022/07/30 08:14:37;;;;;;;9.48;7.00;;;;;;;18.69;67.41;101836.69;5016923;28;20038;-79
2022/07/30 08:17:03;;;;;;;11.15;5.70;;;;;;;18.65;68.30;101837.94;5007674;28;20040;-78
2022/07/30 08:19:28;;;;;;;7.60;5.10;;;;;;;18.71;69.26;101832.13;5006738;28;20032;-78
2022/07/30 08:21:54;;;;;;;9.27;4.90;;;;;;;18.96;69.94;101840.97;5022691;28;20068;-78
2022/07/30 08:24:19;;;;;;;9.73;4.80;;;;;;;19.10;68.85;101840.41;5019532;28;20029;-78
2022/07/30 08:26:44;;;;;;;8.95;3.97;;;;;;;19.22;68.11;101840.97;5015009;28;20355;-79
2022/07/30 08:29:10;;;;;;;7.18;3.92;;;;;;;18.96;65.30;101838.34;5019974;28;20043;-78
2022/07/30 08:31:35;;;;;;;8.93;4.07;;;;;;;19.26;66.26;101840.47;5027145;28;20026;-79
2022/07/30 08:34:00;;;;;;;6.45;3.75;;;;;;;19.16;64.84;101844.22;5028220;28;20072;-78
2022/07/30 08:36:26;;;;;;;7.03;3.60;;;;;;;19.29;66.37;101841.97;5022919;28;20033;-77
2022/07/30 08:38:51;;;;;;;8.35;3.90;;;;;;;19.35;64.39;101838.72;5027788;28;20339;-78
2022/07/30 08:41:19;;;;;;;7.55;3.65;;;;;;;19.39;64.32;101840.06;5024954;28;20527;-77
2022/07/30 08:43:48;;;;;;;7.50;4.00;;;;;;;19.34;63.50;101851.03;5028452;28;20071;-78
2022/07/30 08:46:16;;;;;;;5.78;3.40;;;;;;;19.40;64.86;101841.69;5027323;28;20473;-78
2022/07/30 08:48:42;;;;;;;8.07;3.53;;;;;;;19.55;64.57;101834.81;5027920;28;20112;-79
2022/07/30 08:51:07;;;;;;;8.32;3.15;;;;;;;19.57;62.90;101848.66;5028086;28;20453;-78
2022/07/30 08:53:34;;;;;;;7.93;3.22;;;;;;;19.55;62.42;101853.25;5027505;28;20026;-79
2022/07/30 08:56:00;;;;;;;6.85;3.35;;;;;;;19.44;62.16;101848.31;5028082;28;20461;-79
2022/07/30 08:58:32;;;;;;;7.38;3.10;;;;;;;19.63;61.61;101858.59;5020261;28;20028;-79
2022/07/30 09:00:58;;;;;;;5.75;3.10;;;;;;;19.59;60.07;101845.91;5026612;28;20729;-79
2022/07/30 09:03:23;;;;;;;7.53;3.10;;;;;;;19.68;60.82;101842.31;5022835;28;20025;-78
2022/07/30 09:05:49;;;;;;;8.70;3.15;;;;;;;19.79;61.53;101849.94;5026545;28;20034;-78
2022/07/30 09:08:14;;;;;;;9.15;3.60;;;;;;;19.72;61.12;101840.19;5024971;28;20077;-78
2022/07/30 09:10:41;;;;;;;11.43;3.80;;;;;;;19.65;61.63;101837.38;5016468;28;20138;-79
2022/07/30 09:13:36;;;;;;;7.70;3.55;;;;;;;19.85;62.31;101856.38;5020384;28;20413;-78
2022/07/30 09:16:03;;;;;;;8.18;3.40;;;;;;;19.98;62.54;101846.19;5017927;28;20044;-77
2022/07/30 09:18:38;;;;;;;8.65;3.33;;;;;;;20.32;62.08;101853.13;5027483;28;20116;-79
2022/07/30 09:21:24;;;;;;;6.60;2.85;;;;;;;20.47;62.65;101855.94;5018702;28;20358;-78
2022/07/30 09:24:10;;;;;;;6.22;2.70;;;;;;;20.52;61.06;101859.75;5022820;28;20060;-78
2022/07/30 09:26:51;;;;;;;8.75;3.40;;;;;;;20.73;60.96;101861.06;5019492;28;20017;-78
2022/07/30 09:29:18;;;;;;;7.00;2.90;;;;;;;20.77;59.57;101857.09;5019587;28;20450;-78
2022/07/30 09:32:01;;;;;;;5.43;2.80;;;;;;;20.93;59.61;101867.59;5020306;28;20156;-78
2022/07/30 09:34:28;;;;;;;8.25;3.17;;;;;;;20.96;58.83;101872.56;5023438;28;20444;-78
2022/07/30 09:36:59;;;;;;;5.82;2.90;;;;;;;21.03;59.83;101862.16;5020906;28;20056;-78
2022/07/30 09:39:35;;;;;;;7.22;3.10;;;;;;;21.08;58.93;101859.84;5016970;28;20430;-79
2022/07/30 09:42:03;;;;;;;5.80;3.03;;;;;;;21.30;57.86;101868.88;5021483;28;20059;-79
2022/07/30 09:44:30;;;;;;;5.13;2.80;;;;;;;21.34;58.09;101862.28;5019292;28;20108;-78
2022/07/30 09:46:56;;;;;;;5.97;3.08;;;;;;;21.39;57.36;101867.84;5027391;28;20421;-79
2022/07/30 09:49:27;;;;;;;7.07;2.67;;;;;;;21.42;56.74;101860.41;5026219;28;20033;-77
2022/07/30 09:51:54;;;;;;;5.95;3.28;;;;;;;21.21;54.65;101868.84;5022083;28;20300;-78
2022/07/30 09:54:19;;;;;;;6.63;2.97;;;;;;;21.18;55.49;101863.94;5024635;28;20072;-79
2022/07/30 09:56:45;;;;;;;7.15;3.00;;;;;;;21.28;55.84;101855.84;5025776;28;20465;-77
2022/07/30 09:59:37;;;;;;;5.60;2.70;;;;;;;21.55;57.81;101866.97;5027084;28;20087;-79
2022/07/30 10:02:03;;;;;;;5.85;2.90;;;;;;;21.56;56.70;101863.31;5007586;28;20041;-79
2022/07/30 10:04:31;;;;;;;7.43;2.50;;;;;;;21.89;55.86;101858.69;5021874;28;20033;-78
2022/07/30 10:06:59;;;;;;;6.20;2.50;;;;;;;21.83;55.72;101854.09;5017566;28;20049;-79
2022/07/30 10:09:34;;;;;;;5.68;2.50;;;;;;;21.80;55.07;101865.03;5017622;28;20032;-79
2022/07/30 10:12:02;;;;;;;5.22;2.30;;;;;;;21.91;53.78;101856.72;5023115;28;20461;-78
2022/07/30 10:14:38;;;;;;;5.22;2.20;;;;;;;22.09;55.32;101853.78;5018245;28;20498;-78
2022/07/30 10:17:04;;;;;;;4.72;2.40;;;;;;;22.07;53.26;101845.19;5026470;28;20033;-78
2022/07/30 10:19:31;;;;;;;5.68;2.20;;;;;;;22.07;53.25;101834.63;5023394;28;20422;-79
2022/07/30 10:21:58;;;;;;;5.10;2.20;;;;;;;22.17;53.51;101835.25;5024481;28;20067;-77
2022/07/30 10:24:25;;;;;;;4.57;2.00;;;;;;;22.51;55.25;101837.47;5023572;28;20367;-79
2022/07/30 10:26:53;;;;;;;6.28;2.33;;;;;;;22.36;53.08;101841.88;5018329;28;20029;-77
2022/07/30 10:29:19;;;;;;;4.90;2.45;;;;;;;22.47;52.90;101846.72;5017934;28;20032;-79
2022/07/30 10:31:49;;;;;;;5.43;2.22;;;;;;;22.44;52.44;101847.94;5019983;28;20032;-79
2022/07/30 10:34:16;;;;;;;5.63;2.20;;;;;;;22.56;52.67;101835.09;5025728;28;20052;-79
2022/07/30 10:36:44;;;;;;;5.03;2.00;;;;;;;22.56;50.63;101850.97;5013804;28;20450;-78
2022/07/30 10:39:14;;;;;;;4.45;2.20;;;;;;;22.50;49.84;101843.75;5023739;28;20017;-78
2022/07/30 10:42:05;;;;;;;4.18;1.80;;;;;;;22.86;51.78;101845.72;5021349;28;20428;-79
2022/07/30 10:45:09;;;;;;;4.72;1.85;;;;;;;22.99;52.23;101851.22;5015674;28;20033;-78
2022/07/30 10:47:36;;;;;;;4.95;1.98;;;;;;;23.25;50.56;101841.00;4987039;28;20477;-76
2022/07/30 10:50:12;;;;;;;4.90;2.20;;;;;;;23.40;51.46;101843.66;5020171;28;20056;-79
2022/07/30 10:52:59;;;;;;;5.32;2.22;;;;;;;23.30;49.91;101843.91;5022820;28;20453;-79
2022/07/30 10:55:30;;;;;;;3.97;1.77;;;;;;;23.31;50.44;101834.97;5022689;28;20033;-78
2022/07/30 10:57:56;;;;;;;8.32;2.17;;;;;;;23.29;48.78;101842.28;5014175;28;20466;-79
2022/07/30 11:00:21;;;;;;;4.68;2.03;;;;;;;23.38;48.53;101845.63;5014220;28;20038;-78
2022/07/30 11:03:22;;;;;;;4.25;1.98;;;;;;;23.38;48.77;101855.41;5023168;28;20034;-78
2022/07/30 11:05:50;;;;;;;3.95;1.77;;;;;;;23.28;48.54;101845.94;5017604;28;20540;-78
2022/07/30 11:08:38;;;;;;;4.78;1.88;;;;;;;23.54;51.05;101849.91;5015657;28;20109;-79
2022/07/30 11:11:19;;;;;;;3.47;1.77;;;;;;;23.49;48.89;101847.81;5021695;28;20017;-77
2022/07/30 11:13:50;;;;;;;3.17;1.60;;;;;;;23.58;48.98;101846.72;5023538;28;20060;-79
2022/07/30 11:16:18;;;;;;;4.55;1.80;;;;;;;23.49;47.79;101847.00;5011471;28;20032;-78
2022/07/30 11:19:02;;;;;;;4.43;1.90;;;;;;;23.65;50.54;101841.53;5017459;28;20179;-78
2022/07/30 11:21:28;;;;;;;5.10;1.80;;;;;;;23.66;49.83;101843.16;5021112;28;20053;-78
2022/07/30 11:23:54;;;;;;;4.18;1.88;;;;;;;23.78;49.42;101836.34;5011554;28;20116;-78